Time;durP1;ratioP1;P1;durP2;ratioP2;P2;SDS_P1;SDS_P2;PMS_P1;PMS_P2;Temp;Humidity;BMP_temperature;BMP_pressure;BME280_temperature;BME280_humidity;BME280_pressure;Samples;Min_cycle;Max_cycle;Signal;HPM_P1;HPM_P2
2022/07/07 00:05:47;;;;;;;7.90;4.90;;;19.10;20.90;;;;;;2614714;54;20402;-74
2022/07/07 00:11:34;;;;;;;7.43;4.60;;;19.20;19.90;;;;;;2614210;54;20222;-75
2022/07/07 00:17:22;;;;;;;6.50;4.60;;;19.10;21.90;;;;;;2613822;54;20168;-75
2022/07/07 00:23:08;;;;;;;5.50;4.90;;;19.10;22.80;;;;;;2614107;39;20713;-75
2022/07/07 00:28:56;;;;;;;6.10;5.47;;;19.00;23.10;;;;;;2613447;54;20337;-74
2022/07/07 00:34:43;;;;;;;5.73;4.20;;;19.00;25.10;;;;;;2613686;54;20432;-73
2022/07/07 00:40:31;;;;;;;9.10;5.00;;;19.00;25.90;;;;;;2615000;54;20287;-73
2022/07/07 00:46:20;;;;;;;6.43;4.73;;;18.90;27.90;;;;;;2616023;39;20865;-73
2022/07/07 00:52:08;;;;;;;8.63;4.60;;;19.00;29.70;;;;;;2614699;39;20501;-73
2022/07/07 01:01:20;;;;;;;9.13;3.53;;;18.80;40.20;;;;;;2615641;54;20454;-74
2022/07/07 01:07:08;;;;;;;4.40;4.00;;;18.80;54.10;;;;;;2615494;54;20479;-74
2022/07/07 01:10:11;;;;;;;5.93;3.77;;;18.70;57.30;;;;;;2613452;47;20426;-75
2022/07/07 01:12:40;;;;;;;7.50;3.60;;;18.60;62.70;;;;;;2613824;47;20761;-73
2022/07/07 01:18:28;;;;;;;4.83;4.20;;;18.70;66.60;;;;;;2613546;54;20402;-74
2022/07/07 01:24:15;;;;;;;5.20;3.53;;;18.80;66.70;;;;;;2614114;46;20173;-74
2022/07/07 01:33:24;;;;;;;7.47;3.03;;;18.70;72.10;;;;;;2613977;54;20365;-75
2022/07/07 01:39:11;;;;;;;3.97;3.57;;;18.70;74.90;;;;;;2613718;54;21199;-75
2022/07/07 01:44:59;;;;;;;4.67;3.80;;;18.70;77.60;;;;;;2615677;39;20519;-73
2022/07/07 01:50:47;;;;;;;4.60;4.00;;;18.60;83.00;;;;;;2615073;54;20160;-74
2022/07/07 01:56:35;;;;;;;5.30;4.00;;;18.60;86.20;;;;;;2615390;39;20589;-74
2022/07/07 02:02:22;;;;;;;4.50;4.10;;;18.60;86.90;;;;;;2614678;54;20261;-76
2022/07/07 02:08:10;;;;;;;6.67;6.07;;;18.60;89.40;;;;;;2614509;54;20136;-74
2022/07/07 02:13:58;;;;;;;7.00;6.40;;;18.60;90.10;;;;;;2614974;54;20133;-75
2022/07/07 02:19:46;;;;;;;6.77;6.17;;;18.50;91.70;;;;;;2614067;54;20554;-75
2022/07/07 02:25:33;;;;;;;7.43;6.50;;;18.50;93.80;;;;;;2615069;54;20177;-74
2022/07/07 02:31:21;;;;;;;8.43;6.20;;;18.40;95.00;;;;;;2614303;54;20137;-74
2022/07/07 02:37:12;;;;;;;8.10;7.30;;;18.50;95.60;;;;;;2614807;39;20525;-74
2022/07/07 02:42:59;;;;;;;9.00;6.60;;;18.40;97.90;;;;;;2614828;54;20401;-74
2022/07/07 02:48:47;;;;;;;9.13;7.90;;;18.40;99.30;;;;;;2615817;54;20803;-75
2022/07/07 02:54:35;;;;;;;15.53;7.57;;;18.30;99.90;;;;;;2615476;54;20125;-77
2022/07/07 03:03:45;;;;;;;7.67;6.67;;;18.30;99.90;;;;;;2615062;54;20436;-76
2022/07/07 03:09:33;;;;;;;8.73;7.83;;;18.00;99.90;;;;;;2615210;54;20658;-80
2022/07/07 03:15:21;;;;;;;10.33;7.20;;;17.60;99.90;;;;;;2614357;54;20125;-74
2022/07/07 03:21:09;;;;;;;10.70;9.70;;;17.40;99.90;;;;;;2614297;54;20136;-75
2022/07/07 03:26:58;;;;;;;11.83;10.83;;;17.30;99.90;;;;;;2615766;54;21083;-77
2022/07/07 03:32:46;;;;;;;15.00;13.53;;;17.20;99.90;;;;;;2614336;54;20432;-78
2022/07/07 03:38:34;;;;;;;15.63;14.33;;;17.10;99.90;;;;;;2616906;31;20766;-79
2022/07/07 03:44:21;;;;;;;15.20;14.20;;;16.90;99.90;;;;;;2616491;54;20136;-76
2022/07/07 03:50:09;;;;;;;16.40;14.97;;;16.90;99.90;;;;;;2616424;54;20249;-79
2022/07/07 03:55:57;;;;;;;14.73;13.53;;;17.00;99.90;;;;;;2615816;54;20254;-79
2022/07/07 04:01:54;;;;;;;14.27;13.13;;;16.90;99.90;;;;;;2613788;54;20151;-78
2022/07/07 04:07:45;;;;;;;14.27;12.83;;;17.10;99.90;;;;;;2614738;54;20550;-80
2022/07/07 04:13:32;;;;;;;12.13;11.10;;;17.10;99.90;;;;;;2613886;54;20420;-80
2022/07/07 04:19:19;;;;;;;12.67;11.47;;;17.20;99.90;;;;;;2614696;54;20707;-76
2022/07/07 04:25:07;;;;;;;10.90;9.80;;;17.10;99.90;;;;;;2614333;54;20156;-77
2022/07/07 04:30:54;;;;;;;11.93;10.97;;;17.20;99.90;;;;;;2614130;54;20471;-78
2022/07/07 04:36:42;;;;;;;14.10;9.33;;;17.40;99.90;;;;;;2614346;54;20258;-77
2022/07/07 04:42:30;;;;;;;10.00;8.40;;;17.40;99.90;;;;;;2616118;54;20659;-76
2022/07/07 04:48:17;;;;;;;9.33;7.87;;;17.60;99.90;;;;;;2616440;54;20402;-77
2022/07/07 04:54:05;;;;;;;11.63;10.63;;;17.60;99.90;;;;;;2615637;54;20158;-75
2022/07/07 05:10:10;;;;;;;10.73;9.23;;;16.80;99.90;;;;;;2614055;54;20383;-77
2022/07/07 05:15:57;;;;;;;13.13;8.50;;;16.80;99.90;;;;;;2614680;39;20894;-76
2022/07/07 05:21:44;;;;;;;8.20;7.30;;;16.80;99.90;;;;;;2613406;54;20146;-76
2022/07/07 05:27:31;;;;;;;7.23;5.77;;;16.70;99.90;;;;;;2613859;54;20157;-77
2022/07/07 05:33:18;;;;;;;4.83;4.33;;;16.60;99.90;;;;;;2614378;46;20628;-77
2022/07/07 05:39:06;;;;;;;6.27;4.77;;;16.50;99.90;;;;;;2613221;39;20583;-78
2022/07/07 05:44:53;;;;;;;5.83;4.63;;;16.50;99.90;;;;;;2614218;54;20616;-77
2022/07/07 05:50:41;;;;;;;6.20;5.60;;;16.50;99.90;;;;;;2613584;54;20131;-77
2022/07/07 05:56:29;;;;;;;6.80;6.00;;;16.60;99.90;;;;;;2612321;46;20308;-76
2022/07/07 06:02:34;;;;;;;8.10;6.13;;;16.80;99.90;;;;;;2628754;36;20720;-78
2022/07/07 06:08:22;;;;;;;7.90;7.10;;;17.00;99.90;;;;;;2613483;54;20155;-75
2022/07/07 06:14:09;;;;;;;7.03;6.50;;;17.30;99.90;;;;;;2613449;54;20128;-77
2022/07/07 06:19:57;;;;;;;12.90;7.50;;;17.30;99.90;;;;;;2612670;46;20171;-76
2022/07/07 06:25:45;;;;;;;8.17;7.47;;;17.40;99.90;;;;;;2612709;54;20424;-77
2022/07/07 06:31:33;;;;;;;9.70;6.73;;;17.40;99.90;;;;;;2610313;54;20438;-74
2022/07/07 06:37:21;;;;;;;6.97;6.17;;;17.40;99.90;;;;;;2613388;54;20125;-74
2022/07/07 06:43:08;;;;;;;5.83;5.23;;;17.40;99.90;;;;;;2613022;39;20852;-75
2022/07/07 06:48:57;;;;;;;6.00;5.60;;;17.30;99.90;;;;;;2614102;54;20163;-74
2022/07/07 06:54:44;;;;;;;7.20;4.40;;;17.60;99.90;;;;;;2614214;46;20442;-74
2022/07/07 06:57:48;;;;;;;4.90;4.50;;;17.60;99.90;;;;;;2613759;39;20785;-74
2022/07/07 07:10:23;;;;;;;5.57;4.30;;;18.10;99.90;;;;;;2613455;54;20398;-74
2022/07/07 07:16:11;;;;;;;3.83;3.53;;;18.00;99.90;;;;;;2612330;54;20131;-75
2022/07/07 07:21:58;;;;;;;4.27;2.83;;;17.80;99.90;;;;;;2611698;54;20119;-74
2022/07/07 07:27:45;;;;;;;2.90;2.20;;;17.70;99.90;;;;;;2613677;54;20237;-75
2022/07/07 07:33:35;;;;;;;4.53;2.37;;;17.80;99.90;;;;;;2613704;54;20161;-73
2022/07/07 07:39:22;;;;;;;3.67;2.47;;;18.00;99.90;;;;;;2613363;54;20470;-76
2022/07/07 07:45:09;;;;;;;4.30;2.50;;;18.30;99.90;;;;;;2615506;54;20119;-73
2022/07/07 07:50:58;;;;;;;5.83;2.53;;;18.70;99.90;;;;;;2615338;54;20129;-75
2022/07/07 07:56:45;;;;;;;3.40;3.10;;;18.60;99.90;;;;;;2615055;54;20525;-74
2022/07/07 08:02:49;;;;;;;2.53;2.33;;;18.50;99.90;;;;;;2614421;54;20147;-75
2022/07/07 08:08:37;;;;;;;3.43;2.10;;;19.30;99.90;;;;;;2613671;54;20401;-76
2022/07/07 08:14:24;;;;;;;2.73;2.03;;;18.60;99.90;;;;;;2613142;39;20964;-75
2022/07/07 08:20:11;;;;;;;2.77;2.47;;;17.10;99.90;;;;;;2612768;54;20719;-73
2022/07/07 08:25:58;;;;;;;3.43;3.07;;;16.80;99.90;;;;;;2614252;39;20792;-75
2022/07/07 08:31:45;;;;;;;5.33;3.10;;;17.10;99.90;;;;;;2614057;54;20156;-74
2022/07/07 08:37:33;;;;;;;2.53;2.00;;;17.80;99.90;;;;;;2613423;54;20127;-74
2022/07/07 08:43:21;;;;;;;3.33;2.00;;;18.10;99.90;;;;;;2615622;54;20226;-74
2022/07/07 08:49:11;;;;;;;4.27;2.37;;;18.90;99.90;;;;;;2614643;54;20136;-74
2022/07/07 08:55:01;;;;;;;6.80;2.33;;;19.20;99.90;;;;;;2615479;54;20397;-73
2022/07/07 09:04:11;;;;;;;4.03;2.17;;;18.80;99.90;;;;;;2614957;54;20385;-76
2022/07/07 09:09:59;;;;;;;4.30;1.60;;;19.20;99.90;;;;;;2615342;54;20622;-74
2022/07/07 09:15:47;;;;;;;2.03;1.50;;;19.20;99.90;;;;;;2615467;54;20122;-74
2022/07/07 09:21:35;;;;;;;2.90;1.67;;;19.50;99.90;;;;;;2614758;54;20369;-74
2022/07/07 09:27:22;;;;;;;1.50;1.40;;;19.30;99.90;;;;;;2615506;54;20126;-76
2022/07/07 09:33:12;;;;;;;4.13;1.67;;;19.30;99.90;;;;;;2615678;54;20169;-76
2022/07/07 09:39:03;;;;;;;1.97;1.80;;;20.00;99.90;;;;;;2614896;31;20786;-74
2022/07/07 09:51:39;;;;;;;2.00;1.90;;;20.90;99.90;;;;;;2613633;39;20825;-76
2022/07/07 09:57:27;;;;;;;2.70;1.80;;;21.70;93.20;;;;;;2613618;54;20122;-75
2022/07/07 10:06:38;;;;;;;5.23;1.87;;;22.60;45.10;;;;;;2613376;54;20420;-75
2022/07/07 10:12:26;;;;;;;2.27;2.10;;;20.80;83.20;;;;;;2613680;54;20406;-75
2022/07/07 10:18:15;;;;;;;2.63;1.83;;;19.30;99.90;;;;;;2613812;54;20423;-74
2022/07/07 10:24:05;;;;;;;2.70;1.83;;;18.70;99.90;;;;;;2613009;54;20381;-74
2022/07/07 10:36:25;;;;;;;1.70;1.20;;;18.10;99.90;;;;;;2613158;54;20530;-74
2022/07/07 11:12:41;;;;;;;5.67;1.60;;;19.30;99.90;;;;;;2613399;54;20419;-74
2022/07/07 11:18:34;;;;;;;1.80;1.30;;;19.50;99.90;;;;;;2613341;54;20401;-75
2022/07/07 11:21:03;;;;;;;1.67;1.00;;;20.20;99.90;;;;;;2612747;54;20424;-75
2022/07/07 11:23:49;;;;;;;4.10;1.40;;;20.70;99.90;;;;;;2612627;47;20963;-74
2022/07/07 11:29:36;;;;;;;3.20;1.47;;;20.80;99.90;;;;;;2613251;54;20473;-75
2022/07/07 11:35:27;;;;;;;1.67;1.20;;;20.00;99.90;;;;;;2611571;54;20133;-75
2022/07/07 11:41:15;;;;;;;3.30;1.83;;;20.20;99.90;;;;;;2612939;54;22858;-75
2022/07/07 11:47:02;;;;;;;1.60;1.40;;;19.90;99.90;;;;;;2614918;54;20410;-74
2022/07/07 11:52:55;;;;;;;4.00;1.70;;;20.00;99.90;;;;;;2615170;54;20152;-75
2022/07/07 11:58:56;;;;;;;5.53;1.67;;;20.60;98.00;;;;;;2615830;54;20426;-75
2022/07/07 12:02:00;;;;;;;4.57;1.70;;;21.20;93.90;;;;;;2613843;47;20415;-77
2022/07/07 12:04:25;;;;;;;3.37;1.93;;;21.00;96.00;;;;;;2615223;54;20434;-75
2022/07/07 12:10:25;;;;;;;2.70;1.73;;;19.80;99.90;;;;;;2614921;54;20168;-74
2022/07/07 12:16:13;;;;;;;7.00;1.90;;;20.40;99.90;;;;;;2616573;31;21052;-74
2022/07/07 12:22:01;;;;;;;3.20;2.00;;;21.40;97.50;;;;;;2614140;54;20398;-75
2022/07/07 12:34:22;;;;;;;1.70;1.60;;;21.50;82.60;;;;;;2613674;54;20528;-75
2022/07/07 12:40:13;;;;;;;2.13;1.93;;;21.90;67.20;;;;;;2614597;54;20368;-74
2022/07/07 12:46:09;;;;;;;3.63;2.10;;;21.30;66.80;;;;;;2614883;54;20355;-75
2022/07/07 12:51:57;;;;;;;2.40;2.20;;;20.50;95.80;;;;;;2615187;54;20446;-75
2022/07/07 12:57:45;;;;;;;1.97;1.80;;;19.80;99.90;;;;;;2614396;54;20530;-74
2022/07/07 13:06:55;;;;;;;3.97;2.40;;;20.30;99.90;;;;;;2614680;31;20907;-75
2022/07/07 13:12:44;;;;;;;3.33;2.67;;;20.30;90.80;;;;;;2614677;54;20161;-74
2022/07/07 13:18:32;;;;;;;2.83;2.57;;;20.80;93.50;;;;;;2614218;54;20391;-74
2022/07/07 13:24:20;;;;;;;3.30;2.63;;;20.90;78.30;;;;;;2615980;39;20501;-76
2022/07/07 13:30:08;;;;;;;2.67;2.47;;;20.90;76.40;;;;;;2614428;54;20223;-75
2022/07/07 13:35:57;;;;;;;3.47;3.20;;;20.50;84.60;;;;;;2614720;54;20391;-75
2022/07/07 13:41:44;;;;;;;2.63;2.43;;;20.50;91.60;;;;;;2613845;54;20373;-74
2022/07/07 13:47:31;;;;;;;2.40;2.17;;;20.60;96.30;;;;;;2611687;54;20745;-74
2022/07/07 13:53:17;;;;;;;3.47;2.60;;;20.90;92.10;;;;;;2613405;54;20363;-74
2022/07/07 13:59:05;;;;;;;3.23;2.93;;;21.30;85.40;;;;;;2613044;54;20154;-74
2022/07/07 14:05:04;;;;;;;2.67;2.47;;;21.60;69.20;;;;;;2613424;54;20653;-76
2022/07/07 14:10:51;;;;;;;3.00;2.80;;;21.50;71.80;;;;;;2612337;54;20365;-74
2022/07/07 14:16:38;;;;;;;2.87;2.57;;;21.80;56.00;;;;;;2612365;54;20952;-74
2022/07/07 14:32:37;;;;;;;3.40;2.80;;;21.40;75.40;;;;;;2613030;54;20410;-75
2022/07/07 14:38:25;;;;;;;2.90;2.70;;;22.00;45.20;;;;;;2612939;54;20398;-74
2022/07/07 14:44:12;;;;;;;4.27;3.07;;;23.00;30.30;;;;;;2612698;54;20743;-75
2022/07/07 14:49:59;;;;;;;6.23;4.17;;;22.30;33.50;;;;;;2613163;54;20306;-74
2022/07/07 14:55:47;;;;;;;4.37;3.30;;;23.00;25.30;;;;;;2613307;54;20126;-76
2022/07/07 15:01:35;;;;;;;6.40;3.50;;;23.10;21.70;;;;;;2613227;54;20126;-76
2022/07/07 15:07:23;;;;;;;8.00;4.20;;;22.20;26.80;;;;;;2614423;54;20382;-75
2022/07/07 15:13:14;;;;;;;4.77;3.93;;;21.30;30.80;;;;;;2614662;54;20126;-75
2022/07/07 15:19:02;;;;;;;5.53;3.90;;;20.80;35.10;;;;;;2613975;54;20415;-74
2022/07/07 15:24:50;;;;;;;7.47;4.53;;;20.70;46.30;;;;;;2614991;54;20285;-73
2022/07/07 15:30:37;;;;;;;8.10;4.10;;;21.30;39.60;;;;;;2615499;54;20643;-74
2022/07/07 15:36:25;;;;;;;6.90;4.07;;;21.70;30.00;;;;;;2615377;54;21173;-75
2022/07/07 15:42:13;;;;;;;8.27;3.83;;;20.70;29.20;;;;;;2615723;39;20901;-75
2022/07/07 15:48:01;;;;;;;6.27;4.10;;;21.20;24.10;;;;;;2613909;54;20115;-75
2022/07/07 15:53:49;;;;;;;4.90;3.37;;;20.80;24.30;;;;;;2614783;54;20207;-75
2022/07/07 15:59:37;;;;;;;6.70;4.30;;;20.80;20.90;;;;;;2615513;54;20525;-76
2022/07/07 16:05:42;;;;;;;6.30;4.03;;;20.90;12.90;;;;;;2614276;39;20624;-75
2022/07/07 16:11:29;;;;;;;8.40;3.83;;;21.10;12.30;;;;;;2613978;54;20153;-74
2022/07/07 16:17:18;;;;;;;9.50;4.13;;;20.60;11.80;;;;;;2613922;54;20150;-76
2022/07/07 16:23:05;;;;;;;9.90;3.90;;;20.60;9.90;;;;;;2614234;54;20374;-75
2022/07/07 16:28:52;;;;;;;4.90;3.73;;;20.10;12.20;;;;;;2612074;54;20222;-76
2022/07/07 16:34:40;;;;;;;8.20;4.07;;;20.40;11.90;;;;;;2613329;54;20416;-75
2022/07/07 16:40:27;;;;;;;5.57;4.30;;;20.40;6.40;;;;;;2614818;54;20151;-74
2022/07/07 16:46:15;;;;;;;4.00;3.70;;;20.00;3.60;;;;;;2615367;54;21185;-75
2022/07/07 16:52:04;;;;;;;12.47;5.17;;;19.70;3.20;;;;;;2614865;39;20566;-75
2022/07/07 16:57:51;;;;;;;4.57;4.17;;;20.10;2.40;;;;;;2615089;54;20394;-74
2022/07/07 17:03:39;;;;;;;5.30;3.90;;;21.00;1.00;;;;;;2614033;54;20162;-75
2022/07/07 17:09:27;;;;;;;5.20;4.70;;;21.30;1.00;;;;;;2613292;54;20134;-76
2022/07/07 17:18:35;;;;;;;7.73;4.70;;;20.80;1.00;;;;;;2612833;54;20540;-75
2022/07/07 17:24:23;;;;;;;8.80;4.03;;;20.20;1.60;;;;;;2614131;54;20245;-75
2022/07/07 17:30:10;;;;;;;10.17;4.60;;;19.80;2.30;;;;;;2613984;46;20169;-75
2022/07/07 17:35:57;;;;;;;7.43;3.87;;;19.60;3.40;;;;;;2614196;54;20639;-75
2022/07/07 17:41:45;;;;;;;4.97;3.83;;;20.60;1.80;;;;;;2613822;54;20145;-75
2022/07/07 17:47:32;;;;;;;4.77;4.10;;;20.60;1.00;;;;;;2613456;54;20389;-74
2022/07/07 17:53:20;;;;;;;5.10;3.90;;;19.70;1.00;;;;;;2614043;54;20121;-74
2022/07/07 17:59:08;;;;;;;10.33;3.87;;;19.00;4.80;;;;;;2614032;54;20133;-74
2022/07/07 18:05:04;;;;;;;6.07;5.03;;;19.00;6.30;;;;;;2614098;54;20385;-75
2022/07/07 18:10:52;;;;;;;4.93;3.53;;;19.00;6.10;;;;;;2613814;54;20378;-74
2022/07/07 18:16:39;;;;;;;4.97;3.43;;;18.80;5.60;;;;;;2613202;54;20126;-75
2022/07/07 18:22:26;;;;;;;5.83;3.80;;;18.80;4.70;;;;;;2613420;54;20247;-73
2022/07/07 18:28:13;;;;;;;7.03;3.90;;;18.60;6.10;;;;;;2613209;54;20155;-75
2022/07/07 18:34:02;;;;;;;11.77;4.30;;;18.60;7.90;;;;;;2613752;54;20520;-74
2022/07/07 18:39:49;;;;;;;7.27;3.40;;;18.40;9.80;;;;;;2613667;54;20443;-75
2022/07/07 18:45:37;;;;;;;7.43;3.60;;;18.20;12.40;;;;;;2615317;54;20392;-73
2022/07/07 18:54:46;;;;;;;4.93;3.20;;;18.00;15.80;;;;;;2614316;46;20430;-74
2022/07/07 18:57:12;;;;;;;8.00;4.23;;;18.00;17.00;;;;;;2614943;54;20436;-75
2022/07/07 19:13:16;;;;;;;4.10;3.70;;;17.90;20.80;;;;;;2613877;54;20396;-75
2022/07/07 19:19:05;;;;;;;5.83;3.77;;;17.70;22.30;;;;;;2613050;54;20290;-76
2022/07/07 19:24:52;;;;;;;9.27;4.33;;;17.80;22.90;;;;;;2612797;54;20476;-75
2022/07/07 19:30:40;;;;;;;10.30;4.17;;;17.60;26.50;;;;;;2613284;54;20793;-76
2022/07/07 19:36:27;;;;;;;5.90;3.83;;;17.40;26.50;;;;;;2613651;54;20410;-73
2022/07/07 19:42:15;;;;;;;6.73;3.53;;;17.30;26.10;;;;;;2613549;54;20401;-74
2022/07/07 19:48:03;;;;;;;8.43;3.90;;;17.10;28.30;;;;;;2614602;54;20201;-73
2022/07/07 19:53:50;;;;;;;11.03;3.70;;;17.20;32.30;;;;;;2615093;54;20392;-75
2022/07/07 19:59:38;;;;;;;6.03;4.10;;;17.20;32.30;;;;;;2615137;54;20140;-74
2022/07/07 20:05:42;;;;;;;6.33;3.87;;;17.10;34.60;;;;;;2613412;54;20280;-74
2022/07/07 20:11:33;;;;;;;5.47;3.40;;;17.10;34.80;;;;;;2613593;54;20424;-77
2022/07/07 20:17:20;;;;;;;4.47;3.23;;;17.10;34.60;;;;;;2613495;54;20643;-75
2022/07/07 20:23:07;;;;;;;5.40;3.37;;;16.90;36.50;;;;;;2612333;54;20177;-76
2022/07/07 20:28:54;;;;;;;5.00;3.97;;;16.80;37.90;;;;;;2611016;54;20188;-74
2022/07/07 20:34:41;;;;;;;12.60;4.17;;;16.90;34.50;;;;;;2611024;54;20154;-74
2022/07/07 20:40:29;;;;;;;3.80;3.50;;;16.90;30.80;;;;;;2612628;54;20378;-74
2022/07/07 20:46:17;;;;;;;5.90;3.43;;;17.00;29.70;;;;;;2611863;54;20139;-76
2022/07/07 20:52:05;;;;;;;5.53;2.83;;;17.00;21.00;;;;;;2613090;54;20134;-74
2022/07/07 20:57:55;;;;;;;7.30;3.20;;;16.90;21.60;;;;;;2613162;54;20136;-76
2022/07/07 21:13:52;;;;;;;5.37;3.70;;;16.80;36.40;;;;;;2613425;54;20978;-76
2022/07/07 21:19:39;;;;;;;5.07;3.87;;;16.60;43.90;;;;;;2612611;54;20195;-74
2022/07/07 21:25:27;;;;;;;6.60;4.00;;;16.70;45.50;;;;;;2612985;54;20366;-73
2022/07/07 21:31:14;;;;;;;7.20;4.63;;;16.70;48.00;;;;;;2613169;54;20240;-75
2022/07/07 21:37:01;;;;;;;8.47;4.43;;;16.70;53.20;;;;;;2613515;54;20209;-75
2022/07/07 21:42:48;;;;;;;8.20;4.50;;;16.50;57.20;;;;;;2613983;54;20401;-75
2022/07/07 21:48:36;;;;;;;5.83;3.53;;;16.40;57.40;;;;;;2615277;54;20153;-73
2022/07/07 21:54:23;;;;;;;5.93;4.40;;;16.30;64.20;;;;;;2614896;46;20222;-75
2022/07/07 22:00:12;;;;;;;3.90;3.20;;;16.50;59.30;;;;;;2614215;54;20146;-75
2022/07/07 22:09:25;;;;;;;11.57;3.47;;;16.30;68.30;;;;;;2614356;54;20387;-75
2022/07/07 22:15:13;;;;;;;4.77;3.40;;;16.30;64.10;;;;;;2615029;54;20408;-74
2022/07/07 22:21:01;;;;;;;11.03;4.07;;;16.30;61.30;;;;;;2615122;54;20158;-74
2022/07/07 22:26:49;;;;;;;6.47;3.70;;;16.30;57.70;;;;;;2614952;54;20238;-73
2022/07/07 22:32:36;;;;;;;9.87;3.60;;;16.30;54.50;;;;;;2615222;54;20391;-74
2022/07/07 22:38:24;;;;;;;4.60;3.37;;;16.20;51.20;;;;;;2613685;54;20166;-73
2022/07/07 22:44:12;;;;;;;6.07;3.43;;;16.10;54.10;;;;;;2615552;39;20462;-75
2022/07/07 22:50:00;;;;;;;8.33;3.70;;;16.20;48.70;;;;;;2615228;54;20119;-74
2022/07/07 22:55:48;;;;;;;9.30;3.70;;;16.20;46.20;;;;;;2614399;54;20130;-74
2022/07/07 23:01:35;;;;;;;8.50;3.70;;;16.30;43.00;;;;;;2615081;54;20153;-75
2022/07/07 23:07:39;;;;;;;13.03;3.70;;;16.20;40.90;;;;;;2612093;47;20831;-73
2022/07/07 23:13:27;;;;;;;6.47;3.00;;;16.20;39.20;;;;;;2613524;54;20227;-73
2022/07/07 23:19:14;;;;;;;2.90;2.70;;;16.30;33.10;;;;;;2613602;54;20144;-73
2022/07/07 23:25:01;;;;;;;7.80;3.60;;;16.10;31.80;;;;;;2613276;54;20171;-75
2022/07/07 23:30:48;;;;;;;6.37;3.33;;;16.10;33.00;;;;;;2614013;39;20708;-74
2022/07/07 23:36:35;;;;;;;5.93;3.10;;;16.00;33.80;;;;;;2612249;54;20137;-74
2022/07/07 23:42:22;;;;;;;6.83;3.23;;;16.00;36.50;;;;;;2612699;39;20639;-74
2022/07/07 23:48:10;;;;;;;3.63;3.20;;;16.10;35.50;;;;;;2614333;54;20130;-73
2022/07/07 23:53:58;;;;;;;11.67;3.03;;;16.10;37.70;;;;;;2615410;54;20122;-74
2022/07/07 23:59:45;;;;;;;7.10;3.43;;;15.90;40.00;;;;;;2614650;54;20170;-73
